Weather Data

Pearl Creek Farm: 8878 N Farm Road 75, Walnut Grove MO 65770

<== Previous Day (Saturday 29 Apr 2017) | Next Day (Monday 01 May 2017) ==>

Summary Precipitation Data For Sunday 30 April 2017

ElementValueUnits
Precipitation3.24"
NotesRain and thunderstorms started just before midnight yesterday and continued all the way through the early morning hours this morning.
SourcePearl Creek Farm

Summary Temperature Data For Sunday 30 April 2017

ElementValueUnits
High Temperature67 oF
Low Temperature48 oF
Average Temperature60 oF
High Humidity97 %
Low Humidity51 %
Average Humidity76 %
SourceSpringfield-Branson National Airport (SGF)

Detail Temperature Data For Sunday 30 April 2017

Date / TimeTemp (F)RH (%)Dew Pt (F)Report Date / TimeSource
2017-04-30 00:52:00 62 96 61.0 2017-12-29 17:00:26.17417 Springfield-Branson National Airport (SGF)
2017-04-30 01:52:00 63 93 61.0 2017-12-29 17:00:26.17417 Springfield-Branson National Airport (SGF)
2017-04-30 02:52:00 63 97 62.0 2017-12-29 17:00:26.17417 Springfield-Branson National Airport (SGF)
2017-04-30 04:52:00 64 93 62.0 2017-12-29 17:00:26.17417 Springfield-Branson National Airport (SGF)
2017-04-30 05:52:00 64 93 62.0 2017-12-29 17:00:26.17417 Springfield-Branson National Airport (SGF)
2017-04-30 06:52:00 64 96 63.0 2017-12-29 17:00:26.17417 Springfield-Branson National Airport (SGF)
2017-04-30 18:52:00 50 71 41.0 2017-12-29 17:00:26.17417 Springfield-Branson National Airport (SGF)
2017-04-30 03:52:00 64 93 62.0 2017-12-29 17:00:26.17417 Springfield-Branson National Airport (SGF)
2017-04-30 07:52:00 64 96 63.0 2017-12-29 17:00:26.17417 Springfield-Branson National Airport (SGF)
2017-04-30 08:52:00 65 93 63.0 2017-12-29 17:00:26.17417 Springfield-Branson National Airport (SGF)
2017-04-30 09:52:00 67 87 63.0 2017-12-29 17:00:26.17417 Springfield-Branson National Airport (SGF)
2017-04-30 10:52:00 64 81 58.0 2017-12-29 17:00:26.17417 Springfield-Branson National Airport (SGF)
2017-04-30 11:52:00 63 73 54.0 2017-12-29 17:00:26.17417 Springfield-Branson National Airport (SGF)
2017-04-30 12:52:00 66 63 53.0 2017-12-29 17:00:26.17417 Springfield-Branson National Airport (SGF)
2017-04-30 13:52:00 65 61 51.0 2017-12-29 17:00:26.17417 Springfield-Branson National Airport (SGF)
2017-04-30 14:52:00 62 58 47.0 2017-12-29 17:00:26.17417 Springfield-Branson National Airport (SGF)
2017-04-30 15:52:00 60 56 44.0 2017-12-29 17:00:26.17417 Springfield-Branson National Airport (SGF)
2017-04-30 16:52:00 57 51 39.0 2017-12-29 17:00:26.17417 Springfield-Branson National Airport (SGF)
2017-04-30 17:52:00 54 55 38.0 2017-12-29 17:00:26.17417 Springfield-Branson National Airport (SGF)
2017-04-30 19:52:00 50 68 40.0 2017-12-29 17:00:26.17417 Springfield-Branson National Airport (SGF)
2017-04-30 20:52:00 50 63 38.0 2017-12-29 17:00:26.17417 Springfield-Branson National Airport (SGF)
2017-04-30 21:52:00 50 61 37.0 2017-12-29 17:00:26.17417 Springfield-Branson National Airport (SGF)
2017-04-30 22:52:00 49 61 36.0 2017-12-29 17:00:26.17417 Springfield-Branson National Airport (SGF)
2017-04-30 23:52:00 48 68 38.0 2017-12-29 17:00:26.17417 Springfield-Branson National Airport (SGF)

A total of 24 rows are displayed.